sensor_id;sensor_type;location;lat;lon;timestamp;P1;durP1;ratioP1;P2;durP2;ratioP2
75898;SDS011;64576;50.460;4.866;2024-01-15T00:00:38;5.55;;;2.97;;
75898;SDS011;64576;50.460;4.866;2024-01-15T00:03:04;19.65;;;10.30;;
75898;SDS011;64576;50.460;4.866;2024-01-15T00:05:29;3.25;;;2.92;;
75898;SDS011;64576;50.460;4.866;2024-01-15T00:07:55;13.18;;;7.38;;
75898;SDS011;64576;50.460;4.866;2024-01-15T00:10:20;10.38;;;6.65;;
75898;SDS011;64576;50.460;4.866;2024-01-15T00:12:46;4.32;;;3.20;;
75898;SDS011;64576;50.460;4.866;2024-01-15T00:15:11;17.10;;;6.00;;
75898;SDS011;64576;50.460;4.866;2024-01-15T00:17:36;8.00;;;3.35;;
75898;SDS011;64576;50.460;4.866;2024-01-15T00:20:02;18.08;;;8.98;;
75898;SDS011;64576;50.460;4.866;2024-01-15T00:22:28;23.42;;;10.48;;
75898;SDS011;64576;50.460;4.866;2024-01-15T00:24:54;28.67;;;13.15;;
75898;SDS011;64576;50.460;4.866;2024-01-15T00:27:19;21.30;;;11.38;;
75898;SDS011;64576;50.460;4.866;2024-01-15T00:29:44;15.05;;;7.38;;
75898;SDS011;64576;50.460;4.866;2024-01-15T00:32:10;7.00;;;3.95;;
75898;SDS011;64576;50.460;4.866;2024-01-15T00:34:35;10.88;;;4.97;;
75898;SDS011;64576;50.460;4.866;2024-01-15T00:37:00;20.02;;;9.43;;
75898;SDS011;64576;50.460;4.866;2024-01-15T00:39:26;16.08;;;6.90;;
75898;SDS011;64576;50.460;4.866;2024-01-15T00:41:51;19.30;;;9.20;;
75898;SDS011;64576;50.460;4.866;2024-01-15T00:44:17;9.70;;;5.07;;
75898;SDS011;64576;50.460;4.866;2024-01-15T00:46:43;24.83;;;6.93;;
75898;SDS011;64576;50.460;4.866;2024-01-15T00:49:10;33.22;;;9.15;;
75898;SDS011;64576;50.460;4.866;2024-01-15T00:51:35;25.80;;;10.48;;
75898;SDS011;64576;50.460;4.866;2024-01-15T00:54:00;16.25;;;7.93;;
75898;SDS011;64576;50.460;4.866;2024-01-15T00:56:26;12.45;;;8.45;;
75898;SDS011;64576;50.460;4.866;2024-01-15T00:58:51;11.63;;;5.40;;
75898;SDS011;64576;50.460;4.866;2024-01-15T01:01:16;10.88;;;6.05;;
75898;SDS011;64576;50.460;4.866;2024-01-15T01:03:42;11.90;;;5.13;;
75898;SDS011;64576;50.460;4.866;2024-01-15T01:06:07;3.75;;;2.85;;
75898;SDS011;64576;50.460;4.866;2024-01-15T01:08:32;11.30;;;6.00;;
75898;SDS011;64576;50.460;4.866;2024-01-15T01:10:58;9.75;;;6.82;;
75898;SDS011;64576;50.460;4.866;2024-01-15T01:13:23;5.57;;;4.60;;
75898;SDS011;64576;50.460;4.866;2024-01-15T01:15:48;22.60;;;9.07;;
75898;SDS011;64576;50.460;4.866;2024-01-15T01:18:14;14.07;;;7.00;;
75898;SDS011;64576;50.460;4.866;2024-01-15T01:20:39;19.27;;;9.20;;
75898;SDS011;64576;50.460;4.866;2024-01-15T01:23:04;13.38;;;6.82;;
75898;SDS011;64576;50.460;4.866;2024-01-15T01:25:30;14.52;;;7.03;;
75898;SDS011;64576;50.460;4.866;2024-01-15T01:27:55;17.10;;;9.50;;
75898;SDS011;64576;50.460;4.866;2024-01-15T01:30:20;13.77;;;8.10;;
75898;SDS011;64576;50.460;4.866;2024-01-15T01:32:46;23.52;;;10.45;;
75898;SDS011;64576;50.460;4.866;2024-01-15T01:35:12;25.25;;;10.52;;
75898;SDS011;64576;50.460;4.866;2024-01-15T01:37:37;17.13;;;8.80;;
75898;SDS011;64576;50.460;4.866;2024-01-15T01:40:03;13.25;;;5.57;;
75898;SDS011;64576;50.460;4.866;2024-01-15T01:42:29;9.45;;;5.78;;
75898;SDS011;64576;50.460;4.866;2024-01-15T01:44:54;10.50;;;6.82;;
75898;SDS011;64576;50.460;4.866;2024-01-15T01:47:19;12.55;;;4.88;;
75898;SDS011;64576;50.460;4.866;2024-01-15T01:49:45;20.40;;;6.90;;
75898;SDS011;64576;50.460;4.866;2024-01-15T01:52:12;19.30;;;8.55;;
75898;SDS011;64576;50.460;4.866;2024-01-15T01:54:38;12.18;;;4.45;;
75898;SDS011;64576;50.460;4.866;2024-01-15T01:57:05;10.05;;;5.25;;
75898;SDS011;64576;50.460;4.866;2024-01-15T01:59:31;16.75;;;8.43;;
75898;SDS011;64576;50.460;4.866;2024-01-15T02:01:58;18.90;;;7.22;;
75898;SDS011;64576;50.460;4.866;2024-01-15T02:04:25;13.82;;;6.30;;
75898;SDS011;64576;50.460;4.866;2024-01-15T02:06:51;24.50;;;13.30;;
75898;SDS011;64576;50.460;4.866;2024-01-15T02:09:17;13.95;;;7.30;;
75898;SDS011;64576;50.460;4.866;2024-01-15T02:11:43;15.27;;;7.82;;
75898;SDS011;64576;50.460;4.866;2024-01-15T02:14:11;13.15;;;6.22;;
75898;SDS011;64576;50.460;4.866;2024-01-15T02:16:36;20.08;;;8.60;;
75898;SDS011;64576;50.460;4.866;2024-01-15T02:19:02;13.20;;;7.07;;
75898;SDS011;64576;50.460;4.866;2024-01-15T02:21:27;20.52;;;9.20;;
75898;SDS011;64576;50.460;4.866;2024-01-15T02:23:54;15.80;;;6.28;;
75898;SDS011;64576;50.460;4.866;2024-01-15T02:26:20;15.68;;;6.32;;
75898;SDS011;64576;50.460;4.866;2024-01-15T02:28:47;12.75;;;8.07;;
75898;SDS011;64576;50.460;4.866;2024-01-15T02:31:12;8.90;;;4.57;;
75898;SDS011;64576;50.460;4.866;2024-01-15T02:33:38;12.68;;;5.53;;
75898;SDS011;64576;50.460;4.866;2024-01-15T02:36:03;11.75;;;7.18;;
75898;SDS011;64576;50.460;4.866;2024-01-15T02:38:29;11.35;;;5.75;;
75898;SDS011;64576;50.460;4.866;2024-01-15T02:40:54;16.83;;;9.52;;
75898;SDS011;64576;50.460;4.866;2024-01-15T02:43:20;4.43;;;2.85;;
75898;SDS011;64576;50.460;4.866;2024-01-15T02:45:45;8.73;;;3.65;;
75898;SDS011;64576;50.460;4.866;2024-01-15T02:48:11;10.60;;;6.53;;
75898;SDS011;64576;50.460;4.866;2024-01-15T02:50:37;7.32;;;4.15;;
75898;SDS011;64576;50.460;4.866;2024-01-15T02:53:02;11.65;;;7.10;;
75898;SDS011;64576;50.460;4.866;2024-01-15T02:55:28;14.75;;;5.57;;
75898;SDS011;64576;50.460;4.866;2024-01-15T02:57:54;10.55;;;5.00;;
75898;SDS011;64576;50.460;4.866;2024-01-15T03:00:20;22.38;;;9.63;;
75898;SDS011;64576;50.460;4.866;2024-01-15T03:02:45;14.55;;;7.25;;
75898;SDS011;64576;50.460;4.866;2024-01-15T03:05:11;14.50;;;6.80;;
75898;SDS011;64576;50.460;4.866;2024-01-15T03:07:36;7.07;;;5.05;;
75898;SDS011;64576;50.460;4.866;2024-01-15T03:10:01;12.43;;;6.78;;
75898;SDS011;64576;50.460;4.866;2024-01-15T03:12:27;8.45;;;4.38;;
75898;SDS011;64576;50.460;4.866;2024-01-15T03:14:52;3.78;;;2.53;;
75898;SDS011;64576;50.460;4.866;2024-01-15T03:17:18;14.75;;;7.15;;
75898;SDS011;64576;50.460;4.866;2024-01-15T03:19:44;6.80;;;4.25;;
75898;SDS011;64576;50.460;4.866;2024-01-15T03:22:09;11.10;;;4.82;;
75898;SDS011;64576;50.460;4.866;2024-01-15T03:24:34;8.70;;;5.63;;
75898;SDS011;64576;50.460;4.866;2024-01-15T03:27:00;4.90;;;3.15;;
75898;SDS011;64576;50.460;4.866;2024-01-15T03:29:26;23.55;;;6.82;;
75898;SDS011;64576;50.460;4.866;2024-01-15T03:31:52;19.02;;;7.55;;
75898;SDS011;64576;50.460;4.866;2024-01-15T03:34:17;12.80;;;6.45;;
75898;SDS011;64576;50.460;4.866;2024-01-15T03:36:42;12.23;;;6.40;;
75898;SDS011;64576;50.460;4.866;2024-01-15T03:39:08;12.30;;;5.68;;
75898;SDS011;64576;50.460;4.866;2024-01-15T03:41:33;13.75;;;7.97;;
75898;SDS011;64576;50.460;4.866;2024-01-15T03:43:59;15.68;;;8.23;;
75898;SDS011;64576;50.460;4.866;2024-01-15T03:46:24;17.02;;;5.88;;
75898;SDS011;64576;50.460;4.866;2024-01-15T03:48:49;13.15;;;7.68;;
75898;SDS011;64576;50.460;4.866;2024-01-15T03:51:16;8.00;;;6.55;;
75898;SDS011;64576;50.460;4.866;2024-01-15T03:53:42;28.65;;;10.35;;
75898;SDS011;64576;50.460;4.866;2024-01-15T03:56:07;9.40;;;6.80;;
75898;SDS011;64576;50.460;4.866;2024-01-15T03:58:33;22.08;;;10.32;;
75898;SDS011;64576;50.460;4.866;2024-01-15T04:00:58;9.25;;;4.70;;
75898;SDS011;64576;50.460;4.866;2024-01-15T04:03:23;14.35;;;6.35;;
75898;SDS011;64576;50.460;4.866;2024-01-15T04:05:49;10.15;;;6.35;;
75898;SDS011;64576;50.460;4.866;2024-01-15T04:08:14;13.80;;;6.15;;
75898;SDS011;64576;50.460;4.866;2024-01-15T04:10:40;10.05;;;5.85;;
75898;SDS011;64576;50.460;4.866;2024-01-15T04:13:05;11.80;;;6.80;;
75898;SDS011;64576;50.460;4.866;2024-01-15T04:15:30;20.63;;;9.63;;
75898;SDS011;64576;50.460;4.866;2024-01-15T04:17:56;16.55;;;7.20;;
75898;SDS011;64576;50.460;4.866;2024-01-15T04:20:21;9.65;;;4.97;;
75898;SDS011;64576;50.460;4.866;2024-01-15T04:22:46;15.43;;;8.35;;
75898;SDS011;64576;50.460;4.866;2024-01-15T04:25:12;14.30;;;8.65;;
75898;SDS011;64576;50.460;4.866;2024-01-15T04:27:37;11.65;;;6.97;;
75898;SDS011;64576;50.460;4.866;2024-01-15T04:30:03;17.00;;;8.93;;
75898;SDS011;64576;50.460;4.866;2024-01-15T04:32:28;5.78;;;4.13;;
75898;SDS011;64576;50.460;4.866;2024-01-15T04:34:54;13.48;;;6.28;;
75898;SDS011;64576;50.460;4.866;2024-01-15T04:37:20;4.63;;;3.25;;
75898;SDS011;64576;50.460;4.866;2024-01-15T04:39:45;12.57;;;4.95;;
75898;SDS011;64576;50.460;4.866;2024-01-15T04:42:11;2.10;;;1.48;;
75898;SDS011;64576;50.460;4.866;2024-01-15T04:44:36;11.73;;;6.85;;
75898;SDS011;64576;50.460;4.866;2024-01-15T04:47:02;7.43;;;3.53;;
75898;SDS011;64576;50.460;4.866;2024-01-15T04:49:27;13.38;;;8.27;;
75898;SDS011;64576;50.460;4.866;2024-01-15T04:51:54;12.20;;;6.38;;
75898;SDS011;64576;50.460;4.866;2024-01-15T04:54:19;2.75;;;2.15;;
75898;SDS011;64576;50.460;4.866;2024-01-15T04:56:45;15.77;;;6.88;;
75898;SDS011;64576;50.460;4.866;2024-01-15T04:59:11;7.88;;;5.97;;
75898;SDS011;64576;50.460;4.866;2024-01-15T05:01:36;17.65;;;6.00;;
75898;SDS011;64576;50.460;4.866;2024-01-15T05:04:01;14.45;;;7.78;;
75898;SDS011;64576;50.460;4.866;2024-01-15T05:06:27;19.38;;;9.05;;
75898;SDS011;64576;50.460;4.866;2024-01-15T05:08:53;10.52;;;5.85;;
75898;SDS011;64576;50.460;4.866;2024-01-15T05:11:18;3.40;;;2.17;;
75898;SDS011;64576;50.460;4.866;2024-01-15T05:13:44;13.50;;;5.47;;
75898;SDS011;64576;50.460;4.866;2024-01-15T05:16:09;12.63;;;6.78;;
75898;SDS011;64576;50.460;4.866;2024-01-15T05:18:34;9.82;;;5.05;;
75898;SDS011;64576;50.460;4.866;2024-01-15T05:21:02;18.85;;;9.38;;
75898;SDS011;64576;50.460;4.866;2024-01-15T05:23:28;16.27;;;8.60;;
75898;SDS011;64576;50.460;4.866;2024-01-15T05:25:53;17.05;;;5.93;;
75898;SDS011;64576;50.460;4.866;2024-01-15T05:28:18;4.40;;;3.00;;
75898;SDS011;64576;50.460;4.866;2024-01-15T05:30:44;6.43;;;4.60;;
75898;SDS011;64576;50.460;4.866;2024-01-15T05:33:09;14.43;;;7.50;;
75898;SDS011;64576;50.460;4.866;2024-01-15T05:35:34;11.82;;;8.45;;
75898;SDS011;64576;50.460;4.866;2024-01-15T05:38:00;10.15;;;6.22;;
75898;SDS011;64576;50.460;4.866;2024-01-15T05:40:25;15.65;;;6.82;;
75898;SDS011;64576;50.460;4.866;2024-01-15T05:42:51;22.17;;;11.45;;
75898;SDS011;64576;50.460;4.866;2024-01-15T05:45:16;16.58;;;8.30;;
75898;SDS011;64576;50.460;4.866;2024-01-15T05:47:42;9.93;;;4.63;;
75898;SDS011;64576;50.460;4.866;2024-01-15T05:50:09;14.07;;;7.30;;
75898;SDS011;64576;50.460;4.866;2024-01-15T05:52:34;15.73;;;8.20;;
75898;SDS011;64576;50.460;4.866;2024-01-15T05:55:00;12.10;;;4.90;;
75898;SDS011;64576;50.460;4.866;2024-01-15T05:57:25;20.83;;;8.05;;
75898;SDS011;64576;50.460;4.866;2024-01-15T05:59:51;8.80;;;5.43;;
75898;SDS011;64576;50.460;4.866;2024-01-15T06:02:16;14.23;;;7.25;;
75898;SDS011;64576;50.460;4.866;2024-01-15T06:04:41;4.90;;;3.42;;
75898;SDS011;64576;50.460;4.866;2024-01-15T06:07:07;9.32;;;4.95;;
75898;SDS011;64576;50.460;4.866;2024-01-15T06:09:32;9.85;;;5.55;;
75898;SDS011;64576;50.460;4.866;2024-01-15T06:11:58;18.88;;;9.60;;
75898;SDS011;64576;50.460;4.866;2024-01-15T06:14:23;12.90;;;5.90;;
75898;SDS011;64576;50.460;4.866;2024-01-15T06:16:49;2.05;;;1.95;;
75898;SDS011;64576;50.460;4.866;2024-01-15T06:19:14;3.08;;;2.83;;
75898;SDS011;64576;50.460;4.866;2024-01-15T06:21:40;2.55;;;2.45;;
75898;SDS011;64576;50.460;4.866;2024-01-15T06:24:05;3.75;;;2.88;;
75898;SDS011;64576;50.460;4.866;2024-01-15T06:26:31;15.82;;;7.15;;
75898;SDS011;64576;50.460;4.866;2024-01-15T06:28:56;10.32;;;6.40;;
75898;SDS011;64576;50.460;4.866;2024-01-15T06:31:21;8.35;;;4.53;;
75898;SDS011;64576;50.460;4.866;2024-01-15T06:33:47;21.90;;;11.00;;
75898;SDS011;64576;50.460;4.866;2024-01-15T06:36:13;13.27;;;8.77;;
75898;SDS011;64576;50.460;4.866;2024-01-15T06:38:39;10.25;;;4.28;;
75898;SDS011;64576;50.460;4.866;2024-01-15T06:41:05;26.25;;;9.32;;
75898;SDS011;64576;50.460;4.866;2024-01-15T06:43:30;6.03;;;4.72;;
75898;SDS011;64576;50.460;4.866;2024-01-15T06:45:55;20.20;;;7.43;;
75898;SDS011;64576;50.460;4.866;2024-01-15T06:48:21;19.65;;;9.60;;
75898;SDS011;64576;50.460;4.866;2024-01-15T06:50:46;13.05;;;7.07;;
75898;SDS011;64576;50.460;4.866;2024-01-15T06:53:12;3.97;;;2.80;;
75898;SDS011;64576;50.460;4.866;2024-01-15T06:55:38;8.77;;;5.30;;
75898;SDS011;64576;50.460;4.866;2024-01-15T06:58:04;10.88;;;8.65;;
75898;SDS011;64576;50.460;4.866;2024-01-15T07:00:29;4.97;;;4.05;;
75898;SDS011;64576;50.460;4.866;2024-01-15T07:02:55;0.70;;;0.70;;
75898;SDS011;64576;50.460;4.866;2024-01-15T07:05:21;1.55;;;1.45;;
75898;SDS011;64576;50.460;4.866;2024-01-15T07:07:46;11.95;;;4.95;;
75898;SDS011;64576;50.460;4.866;2024-01-15T07:10:12;9.07;;;6.78;;
75898;SDS011;64576;50.460;4.866;2024-01-15T07:12:38;8.50;;;6.47;;
75898;SDS011;64576;50.460;4.866;2024-01-15T07:15:03;8.68;;;3.85;;
75898;SDS011;64576;50.460;4.866;2024-01-15T07:17:31;16.98;;;7.28;;
75898;SDS011;64576;50.460;4.866;2024-01-15T07:19:56;15.27;;;8.40;;
75898;SDS011;64576;50.460;4.866;2024-01-15T07:22:22;17.38;;;10.85;;
75898;SDS011;64576;50.460;4.866;2024-01-15T07:24:47;24.80;;;11.57;;
75898;SDS011;64576;50.460;4.866;2024-01-15T07:27:13;16.35;;;9.77;;
75898;SDS011;64576;50.460;4.866;2024-01-15T07:29:38;7.63;;;6.30;;
75898;SDS011;64576;50.460;4.866;2024-01-15T07:32:03;18.70;;;10.05;;
75898;SDS011;64576;50.460;4.866;2024-01-15T07:34:29;22.38;;;11.63;;
75898;SDS011;64576;50.460;4.866;2024-01-15T07:36:55;11.93;;;7.25;;
75898;SDS011;64576;50.460;4.866;2024-01-15T07:39:20;18.27;;;10.25;;
75898;SDS011;64576;50.460;4.866;2024-01-15T07:41:48;14.55;;;7.20;;
75898;SDS011;64576;50.460;4.866;2024-01-15T07:44:14;7.22;;;4.50;;
75898;SDS011;64576;50.460;4.866;2024-01-15T07:46:39;9.10;;;3.95;;
75898;SDS011;64576;50.460;4.866;2024-01-15T07:49:06;7.32;;;4.70;;
75898;SDS011;64576;50.460;4.866;2024-01-15T07:51:31;4.00;;;2.13;;
75898;SDS011;64576;50.460;4.866;2024-01-15T07:53:57;4.82;;;3.45;;
75898;SDS011;64576;50.460;4.866;2024-01-15T07:56:22;7.60;;;4.80;;
75898;SDS011;64576;50.460;4.866;2024-01-15T07:58:47;2.88;;;2.33;;
75898;SDS011;64576;50.460;4.866;2024-01-15T08:01:13;7.95;;;2.97;;
75898;SDS011;64576;50.460;4.866;2024-01-15T08:03:39;2.33;;;1.98;;
75898;SDS011;64576;50.460;4.866;2024-01-15T08:06:05;5.65;;;3.35;;
75898;SDS011;64576;50.460;4.866;2024-01-15T08:08:30;6.65;;;3.80;;
75898;SDS011;64576;50.460;4.866;2024-01-15T08:10:56;9.23;;;3.75;;
75898;SDS011;64576;50.460;4.866;2024-01-15T08:13:22;11.38;;;4.90;;
75898;SDS011;64576;50.460;4.866;2024-01-15T08:15:47;6.18;;;3.90;;
75898;SDS011;64576;50.460;4.866;2024-01-15T08:18:12;3.03;;;2.05;;
75898;SDS011;64576;50.460;4.866;2024-01-15T08:20:38;8.80;;;5.32;;
75898;SDS011;64576;50.460;4.866;2024-01-15T08:23:03;13.05;;;7.28;;
75898;SDS011;64576;50.460;4.866;2024-01-15T08:25:29;11.50;;;5.40;;
75898;SDS011;64576;50.460;4.866;2024-01-15T08:27:58;12.65;;;8.40;;
75898;SDS011;64576;50.460;4.866;2024-01-15T08:30:23;13.50;;;6.25;;
75898;SDS011;64576;50.460;4.866;2024-01-15T08:32:55;10.73;;;6.43;;
75898;SDS011;64576;50.460;4.866;2024-01-15T08:35:21;12.93;;;7.07;;
75898;SDS011;64576;50.460;4.866;2024-01-15T08:37:51;11.40;;;4.57;;
75898;SDS011;64576;50.460;4.866;2024-01-15T08:40:18;16.50;;;8.02;;
75898;SDS011;64576;50.460;4.866;2024-01-15T08:42:44;12.15;;;7.60;;
75898;SDS011;64576;50.460;4.866;2024-01-15T08:45:10;13.07;;;5.22;;
75898;SDS011;64576;50.460;4.866;2024-01-15T08:47:36;10.70;;;5.38;;
75898;SDS011;64576;50.460;4.866;2024-01-15T08:50:02;4.65;;;3.20;;
75898;SDS011;64576;50.460;4.866;2024-01-15T08:52:29;12.52;;;5.20;;
75898;SDS011;64576;50.460;4.866;2024-01-15T08:54:56;1.95;;;1.85;;
75898;SDS011;64576;50.460;4.866;2024-01-15T08:57:22;16.00;;;7.65;;
75898;SDS011;64576;50.460;4.866;2024-01-15T08:59:47;13.77;;;8.48;;
75898;SDS011;64576;50.460;4.866;2024-01-15T09:02:13;12.95;;;7.95;;
75898;SDS011;64576;50.460;4.866;2024-01-15T09:04:39;5.70;;;2.58;;
75898;SDS011;64576;50.460;4.866;2024-01-15T09:07:07;6.78;;;2.95;;
75898;SDS011;64576;50.460;4.866;2024-01-15T09:09:32;8.75;;;5.32;;
75898;SDS011;64576;50.460;4.866;2024-01-15T09:11:59;13.00;;;6.18;;
75898;SDS011;64576;50.460;4.866;2024-01-15T09:14:25;7.43;;;4.53;;
75898;SDS011;64576;50.460;4.866;2024-01-15T09:16:54;4.53;;;3.00;;
75898;SDS011;64576;50.460;4.866;2024-01-15T09:19:19;6.15;;;2.80;;
75898;SDS011;64576;50.460;4.866;2024-01-15T09:21:46;2.00;;;1.90;;
75898;SDS011;64576;50.460;4.866;2024-01-15T09:24:11;4.97;;;3.30;;
75898;SDS011;64576;50.460;4.866;2024-01-15T09:26:37;4.65;;;2.17;;
75898;SDS011;64576;50.460;4.866;2024-01-15T09:29:02;6.28;;;3.40;;
75898;SDS011;64576;50.460;4.866;2024-01-15T09:31:28;6.82;;;4.05;;
75898;SDS011;64576;50.460;4.866;2024-01-15T09:33:53;5.03;;;1.85;;
75898;SDS011;64576;50.460;4.866;2024-01-15T09:36:21;3.00;;;2.15;;
75898;SDS011;64576;50.460;4.866;2024-01-15T09:38:47;7.75;;;2.95;;
75898;SDS011;64576;50.460;4.866;2024-01-15T09:41:14;2.35;;;2.15;;
75898;SDS011;64576;50.460;4.866;2024-01-15T09:43:40;3.10;;;1.65;;
75898;SDS011;64576;50.460;4.866;2024-01-15T09:46:07;2.92;;;1.65;;
75898;SDS011;64576;50.460;4.866;2024-01-15T09:48:35;3.00;;;0.90;;
75898;SDS011;64576;50.460;4.866;2024-01-15T09:51:31;7.28;;;2.53;;
75898;SDS011;64576;50.460;4.866;2024-01-15T09:54:08;14.35;;;1.90;;
75898;SDS011;64576;50.460;4.866;2024-01-15T09:56:35;3.33;;;1.52;;
75898;SDS011;64576;50.460;4.866;2024-01-15T09:59:04;3.33;;;0.90;;
75898;SDS011;64576;50.460;4.866;2024-01-15T10:01:41;3.10;;;1.40;;
75898;SDS011;64576;50.460;4.866;2024-01-15T10:04:09;3.17;;;1.70;;
75898;SDS011;64576;50.460;4.866;2024-01-15T10:06:41;1.58;;;0.95;;
75898;SDS011;64576;50.460;4.866;2024-01-15T10:09:14;2.35;;;1.50;;
75898;SDS011;64576;50.460;4.866;2024-01-15T10:11:44;2.22;;;1.05;;
75898;SDS011;64576;50.460;4.866;2024-01-15T10:14:12;6.10;;;2.55;;
75898;SDS011;64576;50.460;4.866;2024-01-15T10:16:39;2.17;;;1.98;;
75898;SDS011;64576;50.460;4.866;2024-01-15T10:19:05;2.78;;;1.63;;
75898;SDS011;64576;50.460;4.866;2024-01-15T10:21:32;3.05;;;1.65;;
75898;SDS011;64576;50.460;4.866;2024-01-15T10:24:00;5.80;;;2.33;;
75898;SDS011;64576;50.460;4.866;2024-01-15T10:26:26;2.17;;;1.70;;
75898;SDS011;64576;50.460;4.866;2024-01-15T10:28:52;1.38;;;1.20;;
75898;SDS011;64576;50.460;4.866;2024-01-15T10:31:18;1.05;;;0.85;;
75898;SDS011;64576;50.460;4.866;2024-01-15T10:33:49;7.63;;;2.10;;
75898;SDS011;64576;50.460;4.866;2024-01-15T10:36:22;3.17;;;2.10;;
75898;SDS011;64576;50.460;4.866;2024-01-15T10:38:47;2.97;;;1.75;;
75898;SDS011;64576;50.460;4.866;2024-01-15T10:41:13;2.90;;;1.58;;
75898;SDS011;64576;50.460;4.866;2024-01-15T10:43:39;0.93;;;0.93;;
75898;SDS011;64576;50.460;4.866;2024-01-15T10:46:06;1.90;;;0.63;;
75898;SDS011;64576;50.460;4.866;2024-01-15T10:48:33;7.07;;;1.83;;
75898;SDS011;64576;50.460;4.866;2024-01-15T10:51:01;2.42;;;1.05;;
75898;SDS011;64576;50.460;4.866;2024-01-15T10:53:35;5.22;;;1.67;;
75898;SDS011;64576;50.460;4.866;2024-01-15T10:56:03;0.73;;;0.73;;
75898;SDS011;64576;50.460;4.866;2024-01-15T10:58:30;2.63;;;1.25;;
75898;SDS011;64576;50.460;4.866;2024-01-15T11:00:56;2.28;;;0.90;;
75898;SDS011;64576;50.460;4.866;2024-01-15T11:03:23;2.78;;;1.10;;
75898;SDS011;64576;50.460;4.866;2024-01-15T11:05:53;0.98;;;0.95;;
75898;SDS011;64576;50.460;4.866;2024-01-15T11:08:18;2.10;;;1.15;;
75898;SDS011;64576;50.460;4.866;2024-01-15T11:13:39;1.50;;;1.33;;
75898;SDS011;64576;50.460;4.866;2024-01-15T11:16:06;1.05;;;0.98;;
75898;SDS011;64576;50.460;4.866;2024-01-15T11:18:36;0.60;;;0.60;;
75898;SDS011;64576;50.460;4.866;2024-01-15T11:21:27;1.63;;;1.23;;
75898;SDS011;64576;50.460;4.866;2024-01-15T11:34:49;1.60;;;1.15;;
75898;SDS011;64576;50.460;4.866;2024-01-15T11:37:23;2.63;;;1.30;;
75898;SDS011;64576;50.460;4.866;2024-01-15T11:39:50;0.90;;;0.63;;
75898;SDS011;64576;50.460;4.866;2024-01-15T11:42:17;2.00;;;1.55;;
75898;SDS011;64576;50.460;4.866;2024-01-15T11:44:43;3.92;;;1.77;;
75898;SDS011;64576;50.460;4.866;2024-01-15T11:47:10;2.60;;;1.45;;
75898;SDS011;64576;50.460;4.866;2024-01-15T11:49:56;2.03;;;1.27;;
75898;SDS011;64576;50.460;4.866;2024-01-15T11:52:23;1.88;;;1.48;;
75898;SDS011;64576;50.460;4.866;2024-01-15T12:00:05;1.45;;;0.80;;
75898;SDS011;64576;50.460;4.866;2024-01-15T12:02:33;2.25;;;1.30;;
75898;SDS011;64576;50.460;4.866;2024-01-15T12:04:59;2.38;;;1.13;;
75898;SDS011;64576;50.460;4.866;2024-01-15T12:07:24;0.60;;;0.60;;
75898;SDS011;64576;50.460;4.866;2024-01-15T12:09:50;2.38;;;1.20;;
75898;SDS011;64576;50.460;4.866;2024-01-15T12:12:18;8.23;;;1.77;;
75898;SDS011;64576;50.460;4.866;2024-01-15T12:14:49;0.90;;;0.77;;
75898;SDS011;64576;50.460;4.866;2024-01-15T12:17:15;0.77;;;0.60;;
75898;SDS011;64576;50.460;4.866;2024-01-15T12:19:41;7.68;;;0.88;;
75898;SDS011;64576;50.460;4.866;2024-01-15T12:22:06;0.80;;;0.60;;
75898;SDS011;64576;50.460;4.866;2024-01-15T12:24:32;0.85;;;0.52;;
75898;SDS011;64576;50.460;4.866;2024-01-15T12:26:57;1.17;;;0.80;;
75898;SDS011;64576;50.460;4.866;2024-01-15T12:29:23;2.10;;;1.13;;
75898;SDS011;64576;50.460;4.866;2024-01-15T12:31:48;1.75;;;0.82;;
75898;SDS011;64576;50.460;4.866;2024-01-15T12:34:13;3.05;;;0.90;;
75898;SDS011;64576;50.460;4.866;2024-01-15T12:36:40;2.28;;;0.82;;
75898;SDS011;64576;50.460;4.866;2024-01-15T12:39:05;1.77;;;0.93;;
75898;SDS011;64576;50.460;4.866;2024-01-15T12:41:33;0.30;;;0.30;;
75898;SDS011;64576;50.460;4.866;2024-01-15T12:43:59;2.10;;;0.82;;
75898;SDS011;64576;50.460;4.866;2024-01-15T12:46:25;0.52;;;0.47;;
75898;SDS011;64576;50.460;4.866;2024-01-15T12:48:50;0.55;;;0.50;;
75898;SDS011;64576;50.460;4.866;2024-01-15T12:51:16;0.60;;;0.60;;
75898;SDS011;64576;50.460;4.866;2024-01-15T12:53:41;1.90;;;1.05;;
75898;SDS011;64576;50.460;4.866;2024-01-15T12:56:07;3.35;;;1.38;;
75898;SDS011;64576;50.460;4.866;2024-01-15T12:58:34;5.95;;;0.93;;
75898;SDS011;64576;50.460;4.866;2024-01-15T13:01:02;4.32;;;1.30;;
75898;SDS011;64576;50.460;4.866;2024-01-15T13:03:27;1.30;;;1.10;;
75898;SDS011;64576;50.460;4.866;2024-01-15T13:05:54;1.13;;;0.90;;
75898;SDS011;64576;50.460;4.866;2024-01-15T13:08:53;1.35;;;1.00;;
75898;SDS011;64576;50.460;4.866;2024-01-15T13:11:27;7.65;;;1.95;;
75898;SDS011;64576;50.460;4.866;2024-01-15T13:14:08;1.02;;;0.70;;
75898;SDS011;64576;50.460;4.866;2024-01-15T13:16:45;0.93;;;0.70;;
75898;SDS011;64576;50.460;4.866;2024-01-15T13:19:31;4.78;;;1.63;;
75898;SDS011;64576;50.460;4.866;2024-01-15T13:22:19;0.65;;;0.55;;
75898;SDS011;64576;50.460;4.866;2024-01-15T13:24:58;2.20;;;1.33;;
75898;SDS011;64576;50.460;4.866;2024-01-15T13:27:30;1.02;;;0.70;;
75898;SDS011;64576;50.460;4.866;2024-01-15T13:29:56;2.33;;;1.40;;
75898;SDS011;64576;50.460;4.866;2024-01-15T13:32:25;2.53;;;1.40;;
75898;SDS011;64576;50.460;4.866;2024-01-15T13:34:52;1.02;;;0.93;;
75898;SDS011;64576;50.460;4.866;2024-01-15T13:37:18;1.27;;;0.73;;
75898;SDS011;64576;50.460;4.866;2024-01-15T13:39:52;1.88;;;0.93;;
75898;SDS011;64576;50.460;4.866;2024-01-15T13:42:30;1.20;;;0.80;;
75898;SDS011;64576;50.460;4.866;2024-01-15T13:45:02;2.85;;;0.90;;
75898;SDS011;64576;50.460;4.866;2024-01-15T13:47:45;2.30;;;0.90;;
75898;SDS011;64576;50.460;4.866;2024-01-15T13:50:26;5.63;;;1.30;;
75898;SDS011;64576;50.460;4.866;2024-01-15T13:53:03;1.33;;;0.70;;
75898;SDS011;64576;50.460;4.866;2024-01-15T13:55:54;0.40;;;0.40;;
75898;SDS011;64576;50.460;4.866;2024-01-15T13:58:27;0.45;;;0.30;;
75898;SDS011;64576;50.460;4.866;2024-01-15T14:01:13;2.25;;;1.05;;
75898;SDS011;64576;50.460;4.866;2024-01-15T14:04:09;1.83;;;0.80;;
75898;SDS011;64576;50.460;4.866;2024-01-15T14:06:46;1.88;;;0.60;;
75898;SDS011;64576;50.460;4.866;2024-01-15T14:09:32;1.48;;;1.45;;
75898;SDS011;64576;50.460;4.866;2024-01-15T14:11:58;1.55;;;0.63;;
75898;SDS011;64576;50.460;4.866;2024-01-15T14:14:24;1.90;;;0.93;;
75898;SDS011;64576;50.460;4.866;2024-01-15T14:16:52;0.50;;;0.32;;
75898;SDS011;64576;50.460;4.866;2024-01-15T14:19:19;1.83;;;1.27;;
75898;SDS011;64576;50.460;4.866;2024-01-15T14:21:47;1.05;;;0.60;;
75898;SDS011;64576;50.460;4.866;2024-01-15T14:24:13;2.72;;;1.10;;
75898;SDS011;64576;50.460;4.866;2024-01-15T14:26:38;0.80;;;0.40;;
75898;SDS011;64576;50.460;4.866;2024-01-15T14:29:07;0.82;;;0.60;;
75898;SDS011;64576;50.460;4.866;2024-01-15T14:31:34;0.90;;;0.43;;
75898;SDS011;64576;50.460;4.866;2024-01-15T14:34:03;0.30;;;0.30;;
75898;SDS011;64576;50.460;4.866;2024-01-15T14:36:28;1.25;;;0.80;;
75898;SDS011;64576;50.460;4.866;2024-01-15T14:38:54;6.13;;;1.55;;
75898;SDS011;64576;50.460;4.866;2024-01-15T14:41:24;1.58;;;1.10;;
75898;SDS011;64576;50.460;4.866;2024-01-15T14:43:50;0.85;;;0.40;;
75898;SDS011;64576;50.460;4.866;2024-01-15T14:46:16;1.25;;;0.63;;
75898;SDS011;64576;50.460;4.866;2024-01-15T14:48:41;0.98;;;0.50;;
75898;SDS011;64576;50.460;4.866;2024-01-15T14:51:06;0.93;;;0.50;;
75898;SDS011;64576;50.460;4.866;2024-01-15T14:53:32;1.00;;;0.75;;
75898;SDS011;64576;50.460;4.866;2024-01-15T14:55:57;0.95;;;0.80;;
75898;SDS011;64576;50.460;4.866;2024-01-15T14:58:23;0.93;;;0.70;;